createdAt,value
2023-03-23T16:00:44.503Z,16.60
2023-03-23T16:05:47.934Z,16.30
2023-03-23T16:10:51.701Z,16.00
2023-03-23T16:15:56.297Z,15.90
2023-03-23T16:20:59.702Z,15.30
2023-03-23T16:26:03.771Z,14.80
2023-03-23T16:31:08.768Z,14.50
2023-03-23T16:36:13.398Z,14.30
2023-03-23T16:41:17.375Z,14.10
2023-03-23T16:46:22.291Z,13.70
2023-03-23T16:51:25.808Z,13.50
2023-03-23T16:56:29.586Z,13.40
2023-03-23T17:01:34.754Z,13.10
2023-03-23T17:06:38.109Z,13.00
2023-03-23T17:11:42.337Z,12.70
2023-03-23T17:16:46.981Z,12.70
2023-03-23T17:21:51.489Z,12.40
2023-03-23T17:26:55.589Z,12.30
2023-03-23T17:32:00.346Z,12.40
2023-03-23T17:37:03.990Z,12.50
2023-03-23T17:42:07.235Z,12.50
2023-03-23T17:47:12.570Z,12.30
2023-03-23T17:52:16.112Z,11.90
2023-03-23T17:57:20.130Z,11.70
2023-03-23T18:02:25.561Z,11.60
2023-03-23T18:07:28.847Z,11.70
2023-03-23T18:12:32.135Z,11.60
2023-03-23T18:17:37.265Z,11.50
2023-03-23T18:22:40.704Z,11.40
2023-03-23T18:27:44.335Z,11.40
2023-03-23T18:32:49.011Z,11.50
2023-03-23T18:37:52.316Z,11.40
2023-03-23T18:42:56.068Z,11.50
2023-03-23T18:48:00.932Z,11.50
2023-03-23T18:53:04.240Z,11.50
2023-03-23T18:58:07.822Z,11.60
2023-03-23T19:03:13.835Z,11.50
2023-03-23T19:08:18.277Z,11.50
2023-03-23T19:13:21.496Z,11.60
2023-03-23T19:18:26.406Z,11.70
2023-03-23T19:23:30.063Z,11.60
2023-03-23T19:29:18.776Z,11.50
2023-03-23T19:33:58.568Z,11.50
2023-03-23T19:39:04.813Z,11.40
2023-03-23T19:44:08.573Z,11.40
2023-03-23T19:49:14.661Z,11.40
2023-03-23T19:54:18.249Z,11.50
2023-03-23T19:59:21.551Z,11.60
2023-03-23T20:04:27.216Z,11.60
2023-03-23T20:09:31.123Z,11.60
2023-03-23T20:14:35.154Z,11.50
2023-03-23T20:19:40.373Z,11.40
2023-03-23T20:24:47.461Z,11.40
2023-03-23T20:29:52.420Z,11.50
2023-03-23T20:34:57.601Z,11.30
2023-03-23T20:40:01.909Z,11.30
2023-03-23T20:45:06.575Z,11.30
2023-03-23T20:50:12.479Z,11.20
2023-03-23T20:55:15.795Z,11.20
2023-03-23T21:00:19.209Z,11.10
2023-03-23T21:05:24.769Z,11.00
2023-03-23T21:10:28.566Z,10.90
2023-03-23T21:15:33.622Z,10.90
2023-03-23T21:20:38.905Z,10.80
2023-03-23T21:25:44.646Z,10.80
2023-03-23T21:30:48.862Z,10.70
2023-03-23T21:35:53.604Z,10.70
2023-03-23T21:40:58.747Z,10.60
2023-03-23T21:46:05.537Z,10.30
2023-03-23T21:51:14.259Z,10.10
2023-03-23T21:56:18.866Z,9.80
2023-03-23T22:01:22.722Z,9.70
2023-03-23T22:06:28.275Z,9.60
2023-03-23T22:11:32.659Z,9.50
2023-03-23T22:16:36.348Z,9.60
2023-03-23T22:21:41.025Z,9.60
2023-03-23T22:26:44.320Z,9.60
2023-03-23T22:31:47.831Z,9.60
2023-03-23T22:36:52.558Z,9.60
2023-03-23T22:41:56.572Z,9.60
2023-03-23T22:46:59.928Z,9.50
2023-03-23T22:52:04.834Z,9.60
2023-03-23T22:57:08.231Z,9.50
2023-03-23T23:02:12.161Z,9.40
2023-03-23T23:07:17.355Z,9.30
2023-03-23T23:12:21.684Z,9.20
2023-03-23T23:17:26.591Z,9.30
2023-03-23T23:22:31.389Z,9.30
2023-03-23T23:27:34.076Z,9.50
2023-03-23T23:32:37.916Z,9.50
2023-03-23T23:37:43.095Z,9.30
2023-03-23T23:42:48.644Z,9.30
2023-03-23T23:47:51.990Z,9.20
2023-03-23T23:52:58.629Z,9.20
2023-03-23T23:58:01.871Z,9.30
